Latest Weather Observations for Adelaide Airport

IDS60801

Issued at 3:02 pm CST Monday 23 September 2019 (issued every 10 minutes, with the page automatically refreshed every 10 minutes)

About weather observations | Map of weather stations | Latest weather observations for SA | Other Formats
Station Details ID: 023034 Name: ADELAIDE AIRPORT Lat: -34.95 Lon: 138.52 Height: 2.0 m
Data from the previous 72 hours. | See also: Recent months at Adelaide Airport
Date/Time
CST
Temp
°C
App
Temp
°C
Dew
Point
°C
Rel
Hum
%
Delta-T
°C
Wind Press
QNH
hPa
Press
MSL
hPa
Rain since
9am
mm
Dir  Spd
km/h
Gust
km/h
Spd
kts
Gust
kts
23/02:30pm 14.5 10.3 5.6 55 4.2 WSW 17 22 9 12 1030.0 1030.0 0.2
23/02:00pm 14.3 9.7 5.6 56 4.1 WSW 19 26 10 14 1030.0 1030.0 0.2
23/01:30pm 14.1 9.2 5.0 54 4.2 WSW 20 30 11 16 1030.3 1030.3 0.2
23/01:00pm 14.0 10.1 5.2 55 4.1 WSW 15 26 8 14 1030.3 1030.3 0.2
23/12:30pm 14.2 10.1 4.3 51 4.5 WSW 15 22 8 12 1030.4 1030.4 0.2
23/12:00pm 14.7 10.3 4.5 50 4.7 SW 17 24 9 13 1030.5 1030.5 0.2
23/11:30am 14.6 11.0 4.9 52 4.5 SW 13 22 7 12 1030.7 1030.7 0.2
23/11:00am 14.0 10.1 5.2 55 4.1 WSW 15 20 8 11 1030.7 1030.7 0.0
23/10:30am 14.3 10.1 5.8 56 4.0 WSW 17 26 9 14 1030.7 1030.7 0.0
23/10:00am 13.8 9.5 5.4 57 3.9 SW 17 22 9 12 1030.7 1030.7 0.0
23/09:30am 13.6 9.3 5.4 57 3.8 WSW 17 22 9 12 1030.6 1030.6 0.0
23/09:00am 13.4 8.8 5.4 58 3.7 SW 19 26 10 14 1030.5 1030.5 1.2
23/08:30am 13.3 8.4 5.3 58 3.7 SW 20 26 11 14 1030.3 1030.3 1.2
23/08:00am 13.4 8.7 5.9 60 3.5 SW 20 26 11 14 1030.0 1030.0 1.2
23/07:30am 12.6 7.8 5.5 62 3.3 SW 20 28 11 15 1029.8 1029.8 1.2
23/07:00am 12.2 7.5 5.0 61 3.3 SW 19 28 10 15 1029.6 1029.6 1.2
23/06:30am 11.7 6.9 4.8 62 3.1 SW 19 26 10 14 1029.3 1029.3 1.2
23/06:00am 11.8 6.8 4.7 62 3.2 SW 20 28 11 15 1028.8 1028.8 1.2
23/05:30am 11.5 6.9 5.4 66 2.8 SW 19 24 10 13 1028.5 1028.5 1.2
23/05:00am 11.5 6.1 4.6 62 3.1 SW 22 28 12 15 1028.1 1028.1 1.2
23/04:30am 11.7 6.5 5.4 65 2.9 SW 22 33 12 18 1027.9 1027.9 1.2
23/04:00am 11.8 6.7 6.0 67 2.7 WSW 22 30 12 16 1027.5 1027.5 1.2
23/03:30am 11.7 6.8 5.1 64 3.0 SW 20 28 11 15 1027.2 1027.2 1.2
23/03:00am 11.7 5.8 5.6 66 2.8 SW 26 32 14 17 1027.0 1027.0 1.2
23/02:30am 11.7 5.2 4.6 62 3.2 SW 28 35 15 19 1027.0 1027.0 1.2
23/02:00am 11.6 5.6 5.5 66 2.8 SW 26 35 14 19 1026.9 1026.9 1.2
23/01:30am 11.8 5.5 5.5 65 2.9 SW 28 35 15 19 1026.8 1026.8 1.2
23/01:00am 11.6 5.2 5.3 65 2.9 SW 28 35 15 19 1026.7 1026.7 1.2
23/12:30am 11.7 5.3 5.1 64 3.0 SW 28 37 15 20 1026.8 1026.8 1.2
23/12:00am 11.8 4.9 4.5 61 3.3 SW 30 37 16 20 1026.8 1026.8 1.2
 
Date/Time
CST
Temp
°C
App
Temp
°C
Dew
Point
°C
Rel
Hum
%
Delta-T
°C
Wind Press
QNH
hPa
Press
MSL
hPa
Rain since
9am
mm
Dir  Spd
km/h
Gust
km/h
Spd
kts
Gust
kts
22/11:30pm 11.8 6.7 7.7 76 2.0 W 24 32 13 17 1026.7 1026.7 1.2
22/11:00pm 11.8 5.9 6.0 67 2.7 WSW 26 33 14 18 1026.6 1026.6 1.2
22/10:30pm 11.5 7.1 7.5 76 1.9 WSW 20 32 11 17 1026.6 1026.6 1.2
22/10:00pm 11.2 6.4 7.4 77 1.8 WSW 22 28 12 15 1026.4 1026.4 1.2
22/09:30pm 11.2 6.9 7.9 80 1.6 WSW 20 28 11 15 1026.1 1026.1 1.2
22/09:00pm 11.3 4.2 8.0 80 1.6 SW 35 44 19 24 1026.0 1026.0 1.2
22/08:30pm 12.0 5.8 7.7 75 2.1 WSW 30 39 16 21 1025.7 1025.7 1.2
22/08:00pm 11.5 5.6 9.1 85 1.2 W 30 39 16 21 1025.5 1025.5 1.2
22/07:40pm 11.5 5.7 8.0 79 1.7 WNW 28 48 15 26 1025.0 1025.0 1.2
22/07:30pm 12.8 7.0 7.9 72 2.4 WNW 28 35 15 19 1024.8 1024.8 0.2
22/07:00pm 12.6 7.2 7.9 73 2.3 WNW 26 35 14 19 1024.6 1024.6 0.2
22/06:30pm 12.5 6.6 7.3 70 2.5 WNW 28 35 15 19 1024.4 1024.4 0.2
22/06:00pm 13.2 6.4 7.0 66 3.0 WNW 32 43 17 23 1024.2 1024.2 0.2
22/05:30pm 13.9 7.5 7.1 63 3.3 WNW 30 39 16 21 1024.0 1024.0 0.2
22/05:00pm 14.3 8.5 6.4 59 3.8 NW 26 37 14 20 1023.7 1023.7 0.2
22/04:30pm 13.8 7.7 6.7 62 3.4 NW 28 33 15 18 1023.6 1023.6 0.2
22/04:00pm 13.9 6.9 6.8 62 3.4 NW 33 41 18 22 1023.7 1023.7 0.2
22/03:30pm 14.1 7.4 7.3 63 3.3 WNW 32 43 17 23 1023.5 1023.5 0.2
22/03:00pm 15.1 8.8 5.6 53 4.5 WNW 28 35 15 19 1023.5 1023.5 0.2
22/02:30pm 15.5 8.3 4.8 49 5.0 NW 32 39 17 21 1023.8 1023.8 0.2
22/02:00pm 15.0 8.3 5.7 53 4.4 NW 30 39 16 21 1024.1 1024.1 0.2
22/01:30pm 15.3 8.1 5.1 50 4.8 NW 32 39 17 21 1024.1 1024.1 0.2
22/01:00pm 15.0 7.8 4.9 51 4.7 NW 32 39 17 21 1024.4 1024.4 0.2
22/12:30pm 14.7 9.2 5.9 55 4.2 NW 24 35 13 19 1024.6 1024.6 0.2
22/12:00pm 13.2 7.7 5.7 60 3.5 NW 24 35 13 19 1024.9 1024.9 0.2
22/11:30am 12.8 5.9 4.7 58 3.7 NW 30 46 16 25 1025.1 1025.1 0.0
22/11:00am 14.2 8.8 6.2 58 3.8 NW 24 33 13 18 1025.1 1025.1 0.0
22/10:30am 13.3 7.5 7.8 69 2.7 NW 28 35 15 19 1025.2 1025.2 0.0
22/10:00am 13.1 6.7 6.8 65 3.0 NW 30 35 16 19 1025.3 1025.3 0.0
22/09:30am 13.2 8.6 6.7 64 3.1 NNW 20 35 11 19 1025.4 1025.4 0.0
22/09:00am 10.3 7.1 8.4 88 0.9 NNE 15 19 8 10 1025.3 1025.3 0.2
22/08:30am 11.2 7.6 8.3 82 1.4 NNE 17 20 9 11 1025.1 1025.1 0.2
22/08:00am 11.3 7.8 7.1 75 2.0 NE 15 19 8 10 1025.0 1025.0 0.2
22/07:30am 9.2 6.1 7.3 88 0.9 NE 13 15 7 8 1024.7 1024.7 0.2
22/07:00am 8.6 5.0 6.9 89 0.8 NE 15 19 8 10 1024.5 1024.5 0.2
22/06:30am 8.5 4.6 7.2 91 0.6 NE 17 20 9 11 1024.2 1024.2 0.2
22/06:00am 8.1 5.7 6.8 91 0.6 ENE 9 9 5 5 1023.8 1023.8 0.2
22/05:30am 8.3 5.0 6.6 89 0.8 NE 13 17 7 9 1023.5 1023.5 0.2
22/05:00am 8.5 4.1 6.5 87 0.9 NNE 19 26 10 14 1023.3 1023.3 0.2
22/04:30am 10.4 6.6 5.6 72 2.2 NW 15 20 8 11 1022.9 1022.9 0.2
22/04:00am 10.9 6.1 4.7 65 2.8 W 19 26 10 14 1022.7 1022.7 0.0
22/03:30am 11.0 6.5 4.3 63 3.0 W 17 22 9 12 1022.6 1022.6 0.0
22/03:00am 10.8 6.3 4.3 64 2.9 W 17 19 9 10 1022.5 1022.5 0.0
22/02:30am 10.7 6.2 4.4 65 2.8 W 17 24 9 13 1022.7 1022.7 0.0
22/02:00am 10.8 5.9 4.0 63 3.0 W 19 28 10 15 1022.8 1022.8 0.0
22/01:30am 10.7 5.2 4.2 64 2.9 W 22 30 12 16 1023.0 1023.0 0.0
22/01:00am 10.9 5.8 4.1 63 3.0 W 20 28 11 15 1023.0 1023.0 0.0
22/12:30am 11.0 5.6 4.3 63 3.0 W 22 28 12 15 1023.2 1023.2 0.0
22/12:00am 11.0 4.7 3.5 60 3.3 W 26 32 14 17 1023.3 1023.3 0.0
 
Date/Time
CST
Temp
°C
App
Temp
°C
Dew
Point
°C
Rel
Hum
%
Delta-T
°C
Wind Press
QNH
hPa
Press
MSL
hPa
Rain since
9am
mm
Dir  Spd
km/h
Gust
km/h
Spd
kts
Gust
kts
21/11:30pm 11.0 5.1 3.7 60 3.2 W 24 32 13 17 1023.3 1023.3 0.0
21/11:00pm 11.0 5.7 3.2 58 3.4 W 20 28 11 15 1023.2 1023.2 0.0
21/10:30pm 11.0 5.8 3.5 60 3.3 W 20 28 11 15 1023.2 1023.2 0.0
21/10:00pm 11.0 5.1 4.0 62 3.1 W 24 30 13 16 1023.2 1023.2 0.0
21/09:30pm 11.0 6.0 4.5 64 2.9 W 20 28 11 15 1023.1 1023.1 0.0
21/09:00pm 11.3 6.3 4.6 63 3.0 W 20 26 11 14 1022.9 1022.9 0.0
21/08:30pm 11.1 6.8 5.4 68 2.6 WSW 17 24 9 13 1022.9 1022.9 0.0
21/08:00pm 11.2 5.7 6.0 70 2.4 WSW 24 33 13 18 1022.7 1022.7 0.0
21/07:30pm 11.4 5.7 5.0 65 2.9 WSW 24 32 13 17 1022.4 1022.4 0.0
21/07:00pm 11.5 5.8 4.9 64 3.0 WSW 24 30 13 16 1021.9 1021.9 0.0
21/06:30pm 11.5 4.8 5.4 66 2.8 WSW 30 35 16 19 1021.7 1021.7 0.0
21/06:00pm 12.3 7.0 4.9 60 3.4 WSW 22 32 12 17 1021.4 1021.4 0.0
21/05:30pm 12.5 7.6 4.3 57 3.7 WSW 19 26 10 14 1021.0 1021.0 0.0
21/05:00pm 13.3 8.2 4.0 53 4.2 WSW 20 28 11 15 1020.7 1020.7 0.0
21/04:30pm 13.1 7.3 4.3 55 4.0 WSW 24 30 13 16 1020.4 1020.4 0.0
21/04:00pm 13.7 8.0 5.1 56 4.0 SW 24 32 13 17 1020.0 1020.0 0.0
21/03:30pm 14.0 8.7 5.0 54 4.2 SW 22 30 12 16 1019.7 1019.7 0.0
21/03:00pm 13.9 7.9 5.4 56 4.0 SW 26 33 14 18 1019.5 1019.5 0.0
21/02:30pm 13.4 6.7 5.7 59 3.6 SW 30 37 16 20 1019.4 1019.4 0.0
21/02:00pm 13.7 7.1 4.3 53 4.3 WSW 28 35 15 19 1019.2 1019.2 0.0
21/01:30pm 14.3 8.2 4.6 52 4.5 WSW 26 37 14 20 1019.1 1019.1 0.0
21/01:00pm 14.1 7.6 4.6 52 4.4 WSW 28 33 15 18 1018.9 1018.9 0.0
21/12:30pm 13.9 6.8 3.4 49 4.7 WSW 30 35 16 19 1018.8 1018.8 0.0
21/12:00pm 14.1 6.9 5.1 54 4.2 SW 32 37 17 20 1018.5 1018.5 0.0
21/11:30am 13.8 6.9 6.3 60 3.6 SW 32 41 17 22 1018.1 1018.1 0.0
21/11:00am 13.4 5.7 7.2 66 3.0 WSW 37 48 20 26 1017.7 1017.7 0.0
21/10:30am 13.4 7.2 7.9 69 2.7 SW 30 37 16 20 1017.5 1017.5 0.0
21/10:00am 13.3 7.1 7.8 69 2.7 SW 30 37 16 20 1017.4 1017.4 0.0
21/09:30am 12.3 5.7 7.8 74 2.2 SW 32 44 17 24 1017.1 1017.1 0.0
21/09:00am 13.0 7.1 7.7 70 2.6 SW 28 39 15 21 1016.5 1016.5 13.6
21/08:30am 12.6 6.4 7.9 73 2.3 SW 30 37 16 20 1016.1 1016.1 13.6
21/08:00am 11.5 5.6 7.3 75 2.0 SW 28 35 15 19 1015.3 1015.3 13.6
21/07:30am 12.0 7.3 7.9 76 2.0 W 22 32 12 17 1014.8 1014.8 13.6
21/07:00am 11.6 6.5 7.5 76 2.0 W 24 32 13 17 1014.5 1014.5 13.6
21/06:30am 11.4 6.3 7.7 78 1.8 W 24 30 13 16 1014.1 1014.1 13.6
21/06:00am 11.6 6.5 7.5 76 2.0 W 24 32 13 17 1013.7 1013.7 13.6
21/05:30am 11.7 6.4 6.6 71 2.4 W 24 30 13 16 1013.3 1013.3 13.6
21/05:00am 11.6 5.7 5.8 67 2.7 W 26 35 14 19 1013.1 1013.1 13.6
21/04:30am 11.7 6.0 6.6 71 2.4 W 26 35 14 19 1012.6 1012.6 13.6
21/04:00am 11.5 7.3 8.2 80 1.6 WNW 20 28 11 15 1012.5 1012.5 13.6
21/03:30am 11.2 8.1 8.8 85 1.2 WNW 15 20 8 11 1012.6 1012.6 13.6
21/03:00am 11.3 7.7 8.2 81 1.5 WNW 17 24 9 13 1012.5 1012.5 13.6
21/02:30am 10.9 8.0 8.0 82 1.4 W 13 19 7 10 1012.5 1012.5 13.6
21/02:00am 10.7 7.6 7.4 80 1.6 W 13 15 7 8 1012.6 1012.6 13.6
21/01:30am 10.9 7.2 8.0 82 1.4 W 17 22 9 12 1012.8 1012.8 13.6
21/01:00am 10.8 7.6 8.6 86 1.1 SW 15 19 8 10 1013.3 1013.3 13.6
21/12:30am 10.5 7.3 8.5 87 1.0 SW 15 19 8 10 1013.7 1013.7 13.6
21/12:00am 10.6 7.4 8.3 86 1.1 SW 15 20 8 11 1013.7 1013.7 13.2
 
Date/Time
CST
Temp
°C
App
Temp
°C
Dew
Point
°C
Rel
Hum
%
Delta-T
°C
Wind Press
QNH
hPa
Press
MSL
hPa
Rain since
9am
mm
Dir  Spd
km/h
Gust
km/h
Spd
kts
Gust
kts
20/11:30pm 10.6 6.0 8.3 86 1.1 WSW 22 30 12 16 1013.3 1013.3 12.8
20/11:00pm 10.5 3.8 8.2 86 1.1 WSW 33 41 18 22 1013.4 1013.4 12.6
20/10:30pm 10.9 5.1 9.5 91 0.7 W 30 39 16 21 1013.8 1013.8 12.2
20/10:00pm 11.3 6.6 10.5 95 0.4 WSW 26 32 14 17 1013.7 1013.7 11.8
20/09:40pm 11.6 8.6 10.6 94 0.5 W 17 22 9 12 1013.7 1013.7 11.6
20/09:30pm 11.7 9.5 10.7 94 0.5 NNW 13 17 7 9 1014.0 1014.0 11.4
20/09:00pm 11.8 10.4 10.8 94 0.5 NNW 9 11 5 6 1014.0 1014.0 11.2
20/08:57pm 11.8 10.4 10.8 94 0.5 NNW 9 11 5 6 1013.9 1013.9 11.2
20/08:30pm 11.5 10.0 10.5 94 0.5 NW 9 13 5 7 1014.0 1014.0 10.6
20/08:00pm 11.4 9.0 10.2 92 0.6 NW 13 17 7 9 1014.4 1014.4 9.8
20/07:45pm 11.5 8.5 10.7 95 0.4 WNW 17 22 9 12 1014.3 1014.3 9.4
20/07:42pm 11.6 8.3 10.8 95 0.4 WNW 19 24 10 13 1014.3 1014.3 9.4
20/07:30pm 11.4 7.8 10.4 94 0.5 WNW 20 30 11 16 1014.7 1014.7 9.0
20/07:05pm 11.9 9.8 11.1 95 0.4 WNW 13 19 7 10 1014.8 1014.8 7.8
20/07:00pm 12.0 10.7 11.2 95 0.4 WNW 9 13 5 7 1014.7 1014.7 7.6
20/06:30pm 11.8 9.6 10.8 94 0.5 WSW 13 17 7 9 1013.4 1013.4 6.0
20/06:26pm 11.8 9.7 11.0 95 0.4 WSW 13 15 7 8 1013.3 1013.3 5.8
20/06:00pm 12.1 10.4 11.1 94 0.5 NW 11 15 6 8 1014.3 1014.3 3.8
20/05:49pm 12.1 10.0 11.1 94 0.5 WNW 13 17 7 9 1014.1 1014.1 3.2
20/05:30pm 11.9 10.1 10.7 92 0.6 W 11 17 6 9 1013.5 1013.5 2.6
20/05:15pm 12.0 9.0 10.6 91 0.7 W 17 20 9 11 1013.7 1013.7 1.8
20/05:00pm 12.2 8.6 10.7 90 0.8 W 20 30 11 16 1014.0 1014.0 0.8
20/04:40pm 13.0 9.7 10.9 87 1.1 W 19 26 10 14 1013.6 1013.6 0.0
20/04:30pm 13.7 10.4 10.8 83 1.5 W 19 26 10 14 1014.1 1014.1 0.0
20/04:00pm 13.9 10.8 11.5 85 1.3 WSW 19 24 10 13 1013.1 1013.1 0.0
20/03:30pm 14.1 9.4 12.1 88 1.1 WSW 28 35 15 19 1012.4 1012.4 0.0

Other formats

Comma delimited format used in spreadsheet applications
http://www.bom.gov.au/fwo/IDS60801/IDS60801.94672.axf

JavaScript Object Notation format (JSON) in row-major order
http://www.bom.gov.au/fwo/IDS60801/IDS60801.94672.json

Data quality

Most of these data are generated automatically and are frequently updated. Quality checks on data are not normally performed. It is possible for incorrect values to appear. Refer to information at About Latest Weather Observations and please check the disclaimer before using these data.